createdAt,value
2022-11-04T00:00:52.173Z,99756.97
2022-11-04T00:02:54.216Z,99753.56
2022-11-04T00:04:56.226Z,99751.84
2022-11-04T00:06:58.806Z,99758.72
2022-11-04T00:09:01.075Z,99762.97
2022-11-04T00:11:13.378Z,99763.81
2022-11-04T00:13:15.488Z,99764.69
2022-11-04T00:15:27.807Z,99773.28
2022-11-04T00:17:29.838Z,99776.69
2022-11-04T00:19:41.617Z,99783.56
2022-11-04T00:21:53.490Z,99781.88
2022-11-04T00:24:05.403Z,99776.72
2022-11-04T00:26:19.453Z,99784.47
2022-11-04T00:28:31.466Z,99784.47
2022-11-04T00:30:33.525Z,99780.13
2022-11-04T00:32:45.377Z,99789.56
2022-11-04T00:34:49.498Z,99793.03
2022-11-04T00:36:51.488Z,99793.03
2022-11-04T00:38:53.696Z,99793.88
2022-11-04T00:40:55.615Z,99795.59
2022-11-04T00:42:57.576Z,99803.31
2022-11-04T00:44:59.806Z,99798.97
2022-11-04T00:47:01.857Z,99798.13
2022-11-04T00:49:04.077Z,99804.13
2022-11-04T00:51:06.505Z,99811.84
2022-11-04T00:53:08.836Z,99815.25
2022-11-04T00:55:11.268Z,99815.25
2022-11-04T00:57:14.046Z,99821.22
2022-11-04T00:59:16.299Z,99829.81
2022-11-04T01:01:20.005Z,99819.53
2022-11-04T01:03:22.167Z,99826.34
2022-11-04T01:05:24.275Z,99832.38
2022-11-04T01:07:26.330Z,99831.50
2022-11-04T01:09:28.368Z,99838.34
2022-11-04T01:11:31.510Z,99838.34
2022-11-04T01:13:34.005Z,99840.13
2022-11-04T01:15:37.640Z,99843.53
2022-11-04T01:17:39.616Z,99840.97
2022-11-04T01:19:41.687Z,99847.84
2022-11-04T01:21:43.846Z,99850.41
2022-11-04T01:23:46.598Z,99858.13
2022-11-04T01:25:48.586Z,99859.84
2022-11-04T01:27:50.625Z,99863.28
2022-11-04T01:29:52.867Z,99858.13
2022-11-04T01:31:54.808Z,99857.28
2022-11-04T01:33:57.876Z,99865.00
2022-11-04T01:36:00.830Z,99869.25
2022-11-04T01:38:03.227Z,99859.84
2022-11-04T01:40:06.007Z,99877.88
2022-11-04T01:42:13.675Z,99881.31
2022-11-04T01:44:34.659Z,99878.72
2022-11-04T01:46:45.666Z,99889.88
2022-11-04T01:48:47.596Z,99883.88
2022-11-04T01:50:52.566Z,99890.75
2022-11-04T01:53:01.207Z,99897.59
2022-11-04T01:55:09.666Z,99901.03
2022-11-04T01:57:17.992Z,99909.59
2022-11-04T01:59:27.455Z,99899.31
2022-11-04T02:01:29.568Z,99905.28
2022-11-04T02:03:37.612Z,99917.31
2022-11-04T02:05:40.267Z,99921.56
2022-11-04T02:07:42.799Z,99922.41
2022-11-04T02:09:45.116Z,99918.97
2022-11-04T02:11:56.319Z,99921.56
2022-11-04T02:13:58.646Z,99928.41
2022-11-04T02:16:04.156Z,99924.94
2022-11-04T02:18:17.678Z,99930.94
2022-11-04T02:20:34.198Z,99942.09
2022-11-04T02:22:45.997Z,99948.06
2022-11-04T02:25:06.074Z,99953.22
2022-11-04T02:27:21.040Z,99956.63
2022-11-04T02:29:31.198Z,99957.50
2022-11-04T02:31:49.705Z,99967.81
2022-11-04T02:34:02.692Z,99973.78
2022-11-04T02:36:12.878Z,99978.09
2022-11-04T02:38:32.229Z,99984.94
2022-11-04T02:40:45.036Z,99986.66
2022-11-04T02:43:01.451Z,99988.38
2022-11-04T02:45:22.466Z,100000.38
2022-11-04T02:47:29.198Z,99998.59
2022-11-04T02:49:36.466Z,100002.06
2022-11-04T02:51:57.478Z,100008.06
2022-11-04T02:54:10.831Z,100020.91
2022-11-04T02:56:15.910Z,100025.13
2022-11-04T02:58:25.825Z,100030.31
2022-11-04T03:00:29.317Z,100041.47
2022-11-04T03:02:46.286Z,100044.78
2022-11-04T03:04:52.828Z,100047.38
2022-11-04T03:06:56.841Z,100049.06
2022-11-04T03:09:01.008Z,100049.94
2022-11-04T03:11:14.800Z,100059.34
2022-11-04T03:13:24.232Z,100055.91
2022-11-04T03:15:31.578Z,100061.91
2022-11-04T03:17:44.624Z,100067.91
2022-11-04T03:19:56.596Z,100074.78
2022-11-04T03:22:01.449Z,100073.88
2022-11-04T03:24:04.884Z,100083.34
2022-11-04T03:26:15.536Z,100083.22
2022-11-04T03:28:36.885Z,100084.13
2022-11-04T03:30:44.127Z,100083.31
2022-11-04T03:32:56.045Z,100086.69
2022-11-04T03:34:58.028Z,100094.50
2022-11-04T03:37:00.226Z,100098.69
2022-11-04T03:39:02.296Z,100090.84
2022-11-04T03:41:09.706Z,100091.81
2022-11-04T03:43:16.997Z,100096.09
2022-11-04T03:45:19.417Z,100089.22
2022-11-04T03:47:24.859Z,100098.69
2022-11-04T03:49:28.093Z,100097.84
2022-11-04T03:51:30.011Z,100100.41
2022-11-04T03:53:32.870Z,100102.94
2022-11-04T03:55:44.747Z,100109.81
2022-11-04T03:57:59.897Z,100102.94
2022-11-04T04:00:07.583Z,100107.22
2022-11-04T04:02:16.513Z,100115.78
2022-11-04T04:04:31.584Z,100114.94
2022-11-04T04:06:36.690Z,100120.97
2022-11-04T04:08:43.297Z,100115.81
2022-11-04T04:11:01.136Z,100118.38
2022-11-04T04:13:14.636Z,100125.22
2022-11-04T04:15:22.726Z,100139.78
2022-11-04T04:17:33.578Z,100135.44
2022-11-04T04:19:38.956Z,100149.16
2022-11-04T04:21:48.446Z,100145.72
2022-11-04T04:24:02.477Z,100153.50
2022-11-04T04:26:17.377Z,100156.03
2022-11-04T04:28:20.857Z,100165.44
2022-11-04T04:30:22.947Z,100164.56
2022-11-04T04:32:28.705Z,100174.03
2022-11-04T04:34:35.226Z,100172.31
2022-11-04T04:36:52.126Z,100178.25
2022-11-04T04:39:03.888Z,100187.69
2022-11-04T04:41:29.429Z,100195.31
2022-11-04T04:43:40.466Z,100194.41
2022-11-04T04:45:49.276Z,100204.69
2022-11-04T04:47:52.385Z,100212.44
2022-11-04T04:49:57.346Z,100217.53
2022-11-04T04:51:59.387Z,100218.31
2022-11-04T04:54:01.296Z,100221.81
2022-11-04T04:56:03.266Z,100226.00
2022-11-04T04:58:05.949Z,100229.47
2022-11-04T05:00:10.478Z,100244.84
2022-11-04T05:02:12.417Z,100246.53
2022-11-04T05:04:14.624Z,100251.66
2022-11-04T05:06:16.706Z,100265.28
2022-11-04T05:08:18.657Z,100263.66
2022-11-04T05:10:21.169Z,100274.75
2022-11-04T05:12:23.663Z,100281.53
2022-11-04T05:14:25.696Z,100283.25
2022-11-04T05:16:27.745Z,100283.22
2022-11-04T05:18:29.633Z,100286.66
2022-11-04T05:20:34.384Z,100298.50
2022-11-04T05:22:36.417Z,100303.63
2022-11-04T05:24:38.476Z,100305.34
2022-11-04T05:26:40.522Z,100314.81
2022-11-04T05:28:42.464Z,100318.91
2022-11-04T05:30:44.576Z,100326.78
2022-11-04T05:32:46.787Z,100330.19
2022-11-04T05:34:49.058Z,100326.72
2022-11-04T05:36:51.048Z,100330.19
2022-11-04T05:38:55.924Z,100334.41
2022-11-04T05:40:58.903Z,100338.63
2022-11-04T05:43:01.347Z,100350.56
2022-11-04T05:45:04.715Z,100349.69
2022-11-04T05:47:06.717Z,100362.44
2022-11-04T05:49:09.793Z,100370.22
2022-11-04T05:51:16.391Z,100380.41
2022-11-04T05:53:18.590Z,100383.00
2022-11-04T05:55:20.580Z,100394.09
2022-11-04T05:57:22.471Z,100401.78
2022-11-04T05:59:24.370Z,100399.03
2022-11-04T06:01:36.163Z,100405.03
2022-11-04T06:03:38.180Z,100410.25
2022-11-04T06:05:40.091Z,100411.88
2022-11-04T06:07:42.154Z,100418.59
2022-11-04T06:09:44.240Z,100424.50
2022-11-04T06:11:46.881Z,100427.91
2022-11-04T06:13:49.508Z,100425.31
2022-11-04T06:15:51.382Z,100436.38
2022-11-04T06:17:53.538Z,100429.47
2022-11-04T06:19:55.609Z,100443.97
2022-11-04T06:21:57.694Z,100449.03
2022-11-04T06:24:00.561Z,100449.78
2022-11-04T06:26:02.521Z,100460.91
2022-11-04T06:28:04.864Z,100469.38
2022-11-04T06:30:07.690Z,100478.00
2022-11-04T06:32:12.891Z,100491.78
2022-11-04T06:34:14.767Z,100490.94
2022-11-04T06:36:17.101Z,100495.19
2022-11-04T06:38:19.216Z,100503.75
2022-11-04T06:40:21.201Z,100509.69
2022-11-04T06:42:23.385Z,100519.09
2022-11-04T06:44:25.405Z,100530.84
2022-11-04T06:46:29.100Z,100526.56
2022-11-04T06:48:31.799Z,100537.69
2022-11-04T06:50:33.930Z,100535.09
2022-11-04T06:52:41.035Z,100549.66
2022-11-04T06:54:44.469Z,100549.63
2022-11-04T06:56:46.599Z,100552.06
2022-11-04T06:58:49.832Z,100558.75
2022-11-04T07:00:53.794Z,100561.22
2022-11-04T07:02:56.917Z,100565.50
2022-11-04T07:04:59.050Z,100571.56
2022-11-04T07:07:01.082Z,100579.09
2022-11-04T07:09:03.452Z,100584.41
2022-11-04T07:11:05.926Z,100597.22
2022-11-04T07:13:08.131Z,100604.91
2022-11-04T07:15:11.153Z,100616.97
2022-11-04T07:17:13.248Z,100626.31
2022-11-04T07:19:15.464Z,100633.22
2022-11-04T07:21:18.055Z,100637.44
2022-11-04T07:23:20.035Z,100644.47
2022-11-04T07:25:21.927Z,100651.22
2022-11-04T07:27:23.919Z,100649.53
2022-11-04T07:29:26.042Z,100660.72
2022-11-04T07:31:28.786Z,100663.03
2022-11-04T07:33:30.860Z,100671.00
2022-11-04T07:35:33.046Z,100669.16
2022-11-04T07:37:35.119Z,100677.00
2022-11-04T07:39:37.681Z,100683.00
2022-11-04T07:41:39.800Z,100695.81
2022-11-04T07:43:41.741Z,100694.00
2022-11-04T07:45:44.143Z,100705.94
2022-11-04T07:47:46.168Z,100711.09
2022-11-04T07:49:48.938Z,100724.81
2022-11-04T07:51:51.016Z,100720.56
2022-11-04T07:53:53.180Z,100723.34
2022-11-04T07:55:55.129Z,100730.94
2022-11-04T07:58:02.215Z,100732.59
2022-11-04T08:00:06.763Z,100740.34
2022-11-04T08:02:10.452Z,100745.38
2022-11-04T08:04:12.176Z,100748.91
2022-11-04T08:06:15.399Z,100757.47
2022-11-04T08:08:17.313Z,100768.47
2022-11-04T08:10:19.526Z,100770.31
2022-11-04T08:12:23.870Z,100770.25
2022-11-04T08:14:25.529Z,100773.75
2022-11-04T08:16:31.588Z,100775.44
2022-11-04T08:18:36.674Z,100779.84
2022-11-04T08:20:38.624Z,100787.56
2022-11-04T08:22:40.572Z,100789.22
2022-11-04T08:24:42.247Z,100797.84
2022-11-04T08:26:44.531Z,100790.22
2022-11-04T08:28:47.135Z,100802.34
2022-11-04T08:31:04.606Z,100803.34
2022-11-04T08:33:06.764Z,100801.72
2022-11-04T08:35:09.353Z,100807.69
2022-11-04T08:37:15.463Z,100809.53
2022-11-04T08:39:17.145Z,100819.81
2022-11-04T08:41:22.042Z,100830.16
2022-11-04T08:43:23.706Z,100833.59
2022-11-04T08:45:28.773Z,100832.00
2022-11-04T08:47:33.229Z,100833.03
2022-11-04T08:49:42.103Z,100839.13
2022-11-04T08:51:46.730Z,100839.13
2022-11-04T08:53:48.468Z,100846.16
2022-11-04T08:55:50.200Z,100852.25
2022-11-04T08:57:53.090Z,100856.59
2022-11-04T08:59:54.826Z,100859.19
2022-11-04T09:01:56.606Z,100868.63
2022-11-04T09:03:58.406Z,100872.19
2022-11-04T09:06:00.519Z,100880.94
2022-11-04T09:08:02.289Z,100880.13
2022-11-04T09:10:06.041Z,100887.97
2022-11-04T09:12:11.633Z,100891.41
2022-11-04T09:14:14.503Z,100886.41
2022-11-04T09:16:16.736Z,100887.19
2022-11-04T09:18:18.928Z,100884.81
2022-11-04T09:20:20.592Z,100893.53
2022-11-04T09:22:22.265Z,100886.75
2022-11-04T09:24:24.088Z,100886.06
2022-11-04T09:26:26.833Z,100886.91
2022-11-04T09:28:28.749Z,100892.81
2022-11-04T09:30:30.494Z,100888.78
2022-11-04T09:32:32.200Z,100894.94
2022-11-04T09:34:34.082Z,100908.78
2022-11-04T09:36:35.929Z,100915.81
2022-11-04T09:38:38.934Z,100917.75
2022-11-04T09:40:40.676Z,100921.28
2022-11-04T09:42:55.599Z,100909.47
2022-11-04T09:45:22.833Z,100923.28
2022-11-04T09:47:26.235Z,100920.03
2022-11-04T09:49:32.531Z,100927.09
2022-11-04T09:54:08.390Z,100923.88
2022-11-04T09:56:20.927Z,100924.84
2022-11-04T09:58:22.834Z,100929.13
2022-11-04T10:00:25.658Z,100931.13
2022-11-04T10:02:45.612Z,100926.91
2022-11-04T10:05:17.682Z,100926.97
2022-11-04T10:07:25.075Z,100931.41
2022-11-04T10:10:09.792Z,100935.78
2022-11-04T10:12:11.547Z,100938.56
2022-11-04T10:14:35.470Z,100935.97
2022-11-04T10:17:14.916Z,100944.75
2022-11-04T10:19:22.455Z,100950.09
2022-11-04T10:21:46.078Z,100956.16
2022-11-04T10:24:14.153Z,100958.06
2022-11-04T10:26:19.490Z,100962.47
2022-11-04T10:28:25.658Z,100968.56
2022-11-04T10:30:29.392Z,100961.97
2022-11-04T10:32:49.795Z,100969.00
2022-11-04T10:35:00.464Z,100970.69
2022-11-04T10:37:03.276Z,100979.50
2022-11-04T10:39:29.357Z,100986.44
2022-11-04T10:41:35.809Z,100992.66
2022-11-04T10:43:40.768Z,100993.63
2022-11-04T10:46:24.179Z,100999.84
2022-11-04T10:48:32.360Z,101006.72
2022-11-04T10:50:56.000Z,101017.25
2022-11-04T10:53:20.220Z,101014.78
2022-11-04T10:55:47.839Z,101008.81
2022-11-04T11:25:23.102Z,101030.31
2022-11-04T11:27:25.548Z,101034.72
2022-11-04T11:29:32.276Z,101038.31
2022-11-04T11:31:38.437Z,101037.53
2022-11-04T11:33:47.699Z,101033.28
2022-11-04T11:36:02.029Z,101040.34
2022-11-04T11:38:08.908Z,101046.47
2022-11-04T11:40:29.723Z,101045.75
2022-11-04T11:42:31.463Z,101040.56
2022-11-04T11:44:40.524Z,101047.47
2022-11-04T11:46:43.066Z,101046.78
2022-11-04T11:48:52.308Z,101049.38
2022-11-04T11:51:00.487Z,101053.03
2022-11-04T11:53:15.014Z,101050.44
2022-11-04T11:55:19.993Z,101055.75
2022-11-04T11:57:31.898Z,101064.50
2022-11-04T12:02:13.483Z,101069.06
2022-11-04T12:09:36.984Z,101057.25
2022-11-04T12:11:46.537Z,101049.59
2022-11-04T12:13:55.948Z,101048.78
2022-11-04T12:16:14.963Z,101048.81
2022-11-04T12:18:30.062Z,101047.19
2022-11-04T12:20:53.546Z,101056.72
2022-11-04T12:23:06.008Z,101056.81
2022-11-04T12:25:19.438Z,101055.94
2022-11-04T12:27:34.274Z,101063.69
2022-11-04T12:29:56.137Z,101062.06
2022-11-04T12:32:23.237Z,101055.16
2022-11-04T12:34:33.482Z,101056.91
2022-11-04T12:36:53.194Z,101054.31
2022-11-04T12:39:06.093Z,101056.09
2022-11-04T12:41:41.737Z,101067.41
2022-11-04T12:43:57.151Z,101070.00
2022-11-04T12:46:12.749Z,101070.09
2022-11-04T12:48:34.204Z,101072.69
2022-11-04T12:50:52.433Z,101072.69
2022-11-04T12:53:13.928Z,101081.41
2022-11-04T12:55:27.789Z,101085.72
2022-11-04T12:57:41.468Z,101086.59
2022-11-04T12:59:55.003Z,101088.31
2022-11-04T13:02:07.950Z,101075.41
2022-11-04T13:04:13.827Z,101093.56
2022-11-04T13:06:23.148Z,101093.50
2022-11-04T13:08:36.492Z,101113.47
2022-11-04T13:10:59.071Z,101104.00
2022-11-04T13:13:03.553Z,101108.28
2022-11-04T13:15:13.077Z,101102.28
2022-11-04T13:17:20.865Z,101109.19
2022-11-04T13:19:34.143Z,101106.59
2022-11-04T13:21:39.320Z,101110.94
2022-11-04T13:23:57.720Z,101117.91
2022-11-04T13:26:02.959Z,101122.25
2022-11-04T13:28:14.213Z,101118.81
2022-11-04T13:30:33.887Z,101112.75
2022-11-04T13:32:48.899Z,101119.72
2022-11-04T13:35:10.050Z,101123.19
2022-11-04T13:37:19.944Z,101118.00
2022-11-04T13:39:33.625Z,101129.28
2022-11-04T13:41:49.041Z,101130.16
2022-11-04T13:43:56.247Z,101131.06
2022-11-04T13:45:59.246Z,101123.22
2022-11-04T13:48:02.031Z,101119.78
2022-11-04T13:50:05.386Z,101118.91
2022-11-04T13:52:12.325Z,101108.53
2022-11-04T13:54:27.479Z,101118.03
2022-11-04T13:56:41.318Z,101115.41
2022-11-04T13:58:52.063Z,101111.94
2022-11-04T14:01:04.371Z,101132.63
2022-11-04T14:03:23.439Z,101136.00
2022-11-04T14:05:29.638Z,101135.09
2022-11-04T14:08:02.293Z,101131.50
2022-11-04T14:10:24.764Z,101125.44
2022-11-04T14:12:34.134Z,101132.25
2022-11-04T14:14:37.244Z,101124.47
2022-11-04T14:16:45.083Z,101129.66
2022-11-04T14:18:50.231Z,101117.50
2022-11-04T14:21:04.406Z,101120.16
2022-11-04T14:23:09.180Z,101115.81
2022-11-04T14:25:23.859Z,101130.50
2022-11-04T14:27:32.011Z,101126.22
2022-11-04T14:29:34.133Z,101134.84
2022-11-04T14:31:39.147Z,101142.75
2022-11-04T14:33:54.244Z,101147.13
2022-11-04T14:36:15.904Z,101151.47
2022-11-04T14:38:29.501Z,101163.56
2022-11-04T14:40:48.882Z,101167.09
2022-11-04T14:42:55.864Z,101174.94
2022-11-04T14:44:58.381Z,101174.06
2022-11-04T14:47:08.367Z,101174.13
2022-11-04T14:49:33.067Z,101178.44
2022-11-04T14:51:41.413Z,101185.38
2022-11-04T14:53:43.754Z,101193.19
2022-11-04T14:55:46.243Z,101189.72
2022-11-04T14:57:52.515Z,101183.66
2022-11-04T14:59:55.093Z,101181.91
2022-11-04T15:01:57.370Z,101187.81
2022-11-04T15:04:12.583Z,101200.84
2022-11-04T15:06:34.794Z,101212.84
2022-11-04T15:08:44.713Z,101210.16
2022-11-04T15:10:51.310Z,101208.28
2022-11-04T15:13:01.876Z,101221.16
2022-11-04T15:15:27.635Z,101222.72
2022-11-04T15:17:33.818Z,101220.13
2022-11-04T15:19:38.687Z,101227.72
2022-11-04T15:21:42.219Z,101227.66
2022-11-04T15:23:50.369Z,101231.00
2022-11-04T15:25:52.607Z,101222.28
2022-11-04T15:27:57.766Z,101217.06
2022-11-04T15:30:04.372Z,101217.84
2022-11-04T15:32:07.142Z,101211.66
2022-11-04T15:34:14.647Z,101208.16
2022-11-04T15:36:28.907Z,101215.88
2022-11-04T15:38:31.892Z,101224.44
2022-11-04T15:40:35.760Z,101217.53
2022-11-04T15:42:40.555Z,101211.44
2022-11-04T15:44:50.729Z,101208.78
2022-11-04T15:46:55.878Z,101209.53
2022-11-04T15:49:07.817Z,101207.75
2022-11-04T15:51:16.775Z,101206.78
2022-11-04T15:53:19.672Z,101209.31
2022-11-04T15:55:27.877Z,101213.53
2022-11-04T15:57:35.339Z,101221.25
2022-11-04T15:59:38.799Z,101233.31
2022-11-04T16:01:51.226Z,101240.97
2022-11-04T16:03:57.665Z,101254.72
2022-11-04T16:06:05.979Z,101253.72
2022-11-04T16:08:21.362Z,101254.47
2022-11-04T16:10:25.743Z,101257.09
2022-11-04T16:12:29.425Z,101258.75
2022-11-04T16:14:31.889Z,101253.56
2022-11-04T16:16:34.428Z,101253.56
2022-11-04T16:18:49.422Z,101252.72
2022-11-04T16:20:53.754Z,101252.69
2022-11-04T16:22:58.912Z,101258.69
2022-11-04T16:25:04.146Z,101257.84
2022-11-04T16:27:11.111Z,101260.44
2022-11-04T16:29:19.835Z,101263.00
2022-11-04T16:31:22.434Z,101264.63
2022-11-04T16:33:24.939Z,101260.31
2022-11-04T16:35:28.792Z,101274.91
2022-11-04T16:37:32.024Z,101281.81
2022-11-04T16:39:34.503Z,101289.53
2022-11-04T16:41:41.059Z,101289.59
2022-11-04T16:43:44.130Z,101297.34
2022-11-04T16:45:53.605Z,101296.44
2022-11-04T16:47:57.376Z,101294.56
2022-11-04T16:50:02.453Z,101293.75
2022-11-04T16:52:09.560Z,101300.59
2022-11-04T16:54:12.182Z,101301.47
2022-11-04T16:56:14.710Z,101304.03
2022-11-04T16:58:19.073Z,101309.22
2022-11-04T17:00:24.682Z,101316.13
2022-11-04T17:02:31.614Z,101319.56
2022-11-04T17:04:34.187Z,101308.34
2022-11-04T17:06:37.201Z,101313.50
2022-11-04T17:08:41.964Z,101315.22
2022-11-04T17:10:47.707Z,101318.50
2022-11-04T17:12:51.143Z,101325.41
2022-11-04T17:14:54.031Z,101319.38
2022-11-04T17:16:59.817Z,101324.56
2022-11-04T17:19:02.420Z,101334.81
2022-11-04T17:21:08.087Z,101334.88
2022-11-04T17:23:14.312Z,101343.50
2022-11-04T17:25:20.245Z,101339.88
2022-11-04T17:27:23.009Z,101348.50
2022-11-04T17:29:25.972Z,101344.09
2022-11-04T17:31:29.729Z,101348.22
2022-11-04T17:33:33.673Z,101350.78
2022-11-04T17:35:38.428Z,101349.03
2022-11-04T17:37:41.106Z,101358.53
2022-11-04T17:39:43.410Z,101347.25
2022-11-04T17:41:54.837Z,101348.97
2022-11-04T17:44:06.873Z,101349.84
2022-11-04T17:46:19.662Z,101342.84
2022-11-04T17:48:22.303Z,101344.56
2022-11-04T17:50:25.236Z,101353.06
2022-11-04T17:52:27.923Z,101349.63
2022-11-04T17:54:30.970Z,101347.72
2022-11-04T17:56:33.921Z,101361.31
2022-11-04T17:58:36.395Z,101370.78
2022-11-04T18:00:38.554Z,101371.63
2022-11-04T18:02:41.588Z,101376.72
2022-11-04T18:04:46.260Z,101379.31
2022-11-04T18:06:50.021Z,101370.72
2022-11-04T18:08:54.887Z,101379.31
2022-11-04T18:11:02.540Z,101374.69
2022-11-04T18:13:04.927Z,101377.44
2022-11-04T18:15:12.292Z,101383.28
2022-11-04T18:17:14.569Z,101372.19
2022-11-04T18:19:20.828Z,101378.13
2022-11-04T18:21:23.237Z,101373.78
2022-11-04T18:23:25.352Z,101381.47
2022-11-04T18:25:27.748Z,101377.13
2022-11-04T18:27:30.302Z,101379.56
2022-11-04T18:29:32.463Z,101379.75
2022-11-04T18:31:39.896Z,101374.66
2022-11-04T18:33:44.408Z,101387.59
2022-11-04T18:35:46.692Z,101395.44
2022-11-04T18:37:49.035Z,101392.81
2022-11-04T18:39:51.366Z,101393.69
2022-11-04T18:41:56.575Z,101392.75
2022-11-04T18:44:00.308Z,101393.78
2022-11-04T18:46:14.249Z,101394.44
2022-11-04T18:48:17.192Z,101397.75
2022-11-04T18:50:19.433Z,101395.28
2022-11-04T18:52:21.671Z,101396.19
2022-11-04T18:54:23.715Z,101396.16
2022-11-04T18:56:25.818Z,101397.88
2022-11-04T18:58:27.947Z,101405.50
2022-11-04T19:00:32.006Z,101408.84
2022-11-04T19:02:34.278Z,101410.28
2022-11-04T19:04:36.575Z,101406.78
2022-11-04T19:06:41.794Z,101414.53
2022-11-04T19:08:46.629Z,101406.81
2022-11-04T19:11:00.754Z,101403.44
2022-11-04T19:13:13.716Z,101408.50
2022-11-04T19:15:15.797Z,101408.19
2022-11-04T19:17:17.936Z,101407.47
2022-11-04T19:19:19.994Z,101413.44
2022-11-04T19:21:25.534Z,101419.47
2022-11-04T19:23:27.772Z,101425.31
2022-11-04T19:25:30.230Z,101421.19
2022-11-04T19:27:32.211Z,101421.75
2022-11-04T19:29:34.309Z,101418.19
2022-11-04T19:31:37.083Z,101420.69
2022-11-04T19:33:39.562Z,101421.50
2022-11-04T19:35:41.932Z,101423.88
2022-11-04T19:37:43.931Z,101424.75
2022-11-04T19:39:46.046Z,101423.22
2022-11-04T19:41:58.533Z,101423.19
2022-11-04T19:44:03.851Z,101425.63
2022-11-04T19:46:06.114Z,101429.03
2022-11-04T19:48:09.197Z,101424.59
2022-11-04T19:50:12.996Z,101422.16
2022-11-04T19:52:15.524Z,101425.41
2022-11-04T19:54:18.717Z,101427.00
2022-11-04T19:56:22.548Z,101432.91
2022-11-04T19:58:24.796Z,101427.81
2022-11-04T20:00:26.919Z,101433.00
2022-11-04T20:02:29.181Z,101424.41
2022-11-04T20:04:31.486Z,101432.00
2022-11-04T20:06:34.271Z,101438.78
2022-11-04T20:08:37.400Z,101444.81
2022-11-04T20:10:42.215Z,101436.97
2022-11-04T20:12:53.971Z,101441.25
2022-11-04T20:14:57.160Z,101445.38
2022-11-04T20:16:59.346Z,101441.88
2022-11-04T20:19:04.991Z,101445.28
2022-11-04T20:21:07.469Z,101442.56
2022-11-04T20:23:09.790Z,101440.72
2022-11-04T20:25:12.037Z,101444.09
2022-11-04T20:27:15.699Z,101439.84
2022-11-04T20:29:18.055Z,101450.06
2022-11-04T20:31:23.724Z,101446.69
2022-11-04T20:33:26.096Z,101446.84
2022-11-04T20:35:28.336Z,101450.16
2022-11-04T20:37:30.550Z,101462.97
2022-11-04T20:39:32.864Z,101457.00
2022-11-04T20:41:35.107Z,101452.72
2022-11-04T20:43:38.768Z,101456.84
2022-11-04T20:45:41.013Z,101462.19
2022-11-04T20:47:43.421Z,101467.94
2022-11-04T20:49:45.919Z,101476.31
2022-11-04T20:51:54.687Z,101475.53
2022-11-04T20:54:00.824Z,101475.25
2022-11-04T20:56:06.895Z,101475.25
2022-11-04T20:58:09.525Z,101475.91
2022-11-04T21:00:13.301Z,101473.34
2022-11-04T21:02:15.800Z,101477.81
2022-11-04T21:04:20.443Z,101485.59
2022-11-04T21:06:22.656Z,101489.97
2022-11-04T21:08:26.031Z,101479.59
2022-11-04T21:10:28.310Z,101487.13
2022-11-04T21:12:30.788Z,101477.78
2022-11-04T21:14:34.987Z,101471.84
2022-11-04T21:16:37.735Z,101476.00
2022-11-04T21:18:42.960Z,101477.00
2022-11-04T21:20:45.448Z,101477.63
2022-11-04T21:22:47.560Z,101479.13
2022-11-04T21:24:49.797Z,101474.78
2022-11-04T21:26:52.005Z,101471.19
2022-11-04T21:28:55.557Z,101476.16
2022-11-04T21:31:03.288Z,101485.53
2022-11-04T21:33:06.044Z,101481.88
2022-11-04T21:35:08.770Z,101477.81
2022-11-04T21:37:10.948Z,101487.97
2022-11-04T21:39:13.440Z,101478.72
2022-11-04T21:41:19.480Z,101476.97
2022-11-04T21:43:21.552Z,101477.06
2022-11-04T21:45:24.020Z,101478.63
2022-11-04T21:47:26.208Z,101482.91
2022-11-04T21:49:28.333Z,101491.56
2022-11-04T21:51:33.492Z,101491.56
2022-11-04T21:53:35.963Z,101490.59
2022-11-04T21:55:38.161Z,101501.72
2022-11-04T21:57:40.288Z,101499.06
2022-11-04T21:59:42.399Z,101506.72
2022-11-04T22:01:45.184Z,101503.47
2022-11-04T22:03:53.091Z,101496.50
2022-11-04T22:05:59.353Z,101503.09
2022-11-04T22:08:10.685Z,101496.00
2022-11-04T22:10:12.965Z,101496.91
2022-11-04T22:12:15.201Z,101499.56
2022-11-04T22:14:17.288Z,101508.91
2022-11-04T22:16:23.264Z,101504.63
2022-11-04T22:18:26.538Z,101507.16
2022-11-04T22:20:29.101Z,101503.75
2022-11-04T22:22:31.600Z,101496.81
2022-11-04T22:24:33.642Z,101502.00
2022-11-04T22:26:36.127Z,101498.41
2022-11-04T22:28:38.358Z,101500.16
2022-11-04T22:30:40.654Z,101494.03
2022-11-04T22:32:42.657Z,101502.69
2022-11-04T22:34:44.742Z,101500.84
2022-11-04T22:36:47.138Z,101511.03
2022-11-04T22:38:49.575Z,101518.59
2022-11-04T22:40:56.316Z,101517.63
2022-11-04T22:42:58.340Z,101512.47
2022-11-04T22:45:00.833Z,101509.97
2022-11-04T22:47:02.997Z,101505.34
2022-11-04T22:49:05.050Z,101512.97
2022-11-04T22:51:09.645Z,101515.31
2022-11-04T22:53:12.629Z,101511.56
2022-11-04T22:55:15.051Z,101513.38
2022-11-04T22:57:17.100Z,101505.81
2022-11-04T22:59:21.511Z,101504.63
2022-11-04T23:01:23.605Z,101515.72
2022-11-04T23:03:26.728Z,101506.31
2022-11-04T23:05:31.108Z,101509.66
2022-11-04T23:07:33.269Z,101508.69
2022-11-04T23:09:55.302Z,101510.44
2022-11-04T23:12:06.641Z,101508.47
2022-11-04T23:14:22.006Z,101508.53
2022-11-04T23:16:34.210Z,101494.56
2022-11-04T23:18:43.261Z,101494.66
2022-11-04T23:21:05.593Z,101491.63
2022-11-04T23:23:18.157Z,101491.31
2022-11-04T23:25:20.421Z,101492.69
2022-11-04T23:27:31.610Z,101490.03
2022-11-04T23:29:44.102Z,101486.53
2022-11-04T23:31:46.250Z,101483.88
2022-11-04T23:34:08.448Z,101498.03
2022-11-04T23:36:20.022Z,101493.66
2022-11-04T23:38:22.182Z,101483.44
2022-11-04T23:40:24.431Z,101487.84
2022-11-04T23:42:26.519Z,101487.84
2022-11-04T23:44:38.680Z,101488.84
2022-11-04T23:46:50.721Z,101486.44
2022-11-04T23:49:02.674Z,101488.69
2022-11-04T23:51:14.849Z,101486.63
2022-11-04T23:53:27.633Z,101495.22
2022-11-04T23:55:40.835Z,101491.28
2022-11-04T23:57:52.871Z,101499.28
